THY8RW LTFM-OSAP
Flight info
| Callsign | THY8RW |
|---|---|
| Flight time | N/A |
| Altitude | 35000 |
| Route | VICEN UT57 VEVUD UT341 BAG UL605 YUCEL UA17 BELSU UL605 RATSI UA17 REMPO UL605 GAZ UB36 TUSYR DCT GOLF |
| Aircraft | A320/M-SDE3FGHIRWY/LB1 |
Departure
| Time | 2026-04-30 22:31 |
|---|---|
| Airport | İstanbul Airport (LTFM) |
Arrival
| Time | N/A |
|---|---|
| Airport | Aleppo International Airport (OSAP) |
| Time | Latitude | Longitude | Altitude | Speed | Heading |
|---|---|---|---|---|---|
| 2026-04-30 21:40 | 41.26385 | 28.74684 | 314 ft | 0 kts | 107° |
| 2026-04-30 22:18 | 41.26386 | 28.74680 | 313 ft | 3 kts | 107° |
| 2026-04-30 22:19 | 41.26399 | 28.74615 | 313 ft | 4 kts | 103° |
| 2026-04-30 22:19 | 41.26405 | 28.74582 | 312 ft | 4 kts | 101° |
| 2026-04-30 22:19 | 41.26415 | 28.74515 | 313 ft | 4 kts | 101° |
| 2026-04-30 22:20 | 41.26416 | 28.74507 | 313 ft | 0 kts | 102° |
| 2026-04-30 22:22 | 41.26415 | 28.74510 | 313 ft | 1 kts | 101° |
| 2026-04-30 22:22 | 41.26416 | 28.74529 | 313 ft | 4 kts | 82° |
| 2026-04-30 22:23 | 41.26438 | 28.74564 | 313 ft | 6 kts | 31° |
| 2026-04-30 22:23 | 41.26489 | 28.74590 | 313 ft | 9 kts | 19° |
| 2026-04-30 22:23 | 41.26558 | 28.74611 | 313 ft | 11 kts | 7° |
| 2026-04-30 22:23 | 41.26637 | 28.74612 | 313 ft | 12 kts | 358° |
| 2026-04-30 22:24 | 41.26729 | 28.74609 | 312 ft | 14 kts | 359° |
| 2026-04-30 22:24 | 41.26836 | 28.74607 | 313 ft | 16 kts | 359° |
| 2026-04-30 22:24 | 41.26925 | 28.74605 | 312 ft | 10 kts | 359° |
| 2026-04-30 22:24 | 41.26971 | 28.74663 | 312 ft | 10 kts | 83° |
| 2026-04-30 22:25 | 41.26972 | 28.74769 | 312 ft | 13 kts | 90° |
| 2026-04-30 22:25 | 41.26973 | 28.74897 | 312 ft | 15 kts | 88° |
| 2026-04-30 22:25 | 41.26975 | 28.75045 | 312 ft | 17 kts | 89° |
| 2026-04-30 22:25 | 41.26977 | 28.75199 | 307 ft | 18 kts | 89° |
| 2026-04-30 22:26 | 41.26940 | 28.75371 | 307 ft | 9 kts | 169° |
| 2026-04-30 22:26 | 41.26872 | 28.75372 | 308 ft | 10 kts | 179° |
| 2026-04-30 22:26 | 41.26799 | 28.75373 | 309 ft | 11 kts | 179° |
| 2026-04-30 22:27 | 41.26722 | 28.75375 | 310 ft | 11 kts | 179° |
| 2026-04-30 22:27 | 41.26640 | 28.75376 | 311 ft | 12 kts | 179° |
| 2026-04-30 22:27 | 41.26488 | 28.75377 | 312 ft | 14 kts | 179° |
| 2026-04-30 22:28 | 41.26310 | 28.75381 | 314 ft | 11 kts | 180° |
| 2026-04-30 22:28 | 41.26253 | 28.75406 | 314 ft | 8 kts | 133° |
| 2026-04-30 22:29 | 41.26244 | 28.75641 | 316 ft | 6 kts | 86° |
| 2026-04-30 22:29 | 41.26283 | 28.75668 | 316 ft | 8 kts | 360° |
| 2026-04-30 22:30 | 41.28771 | 28.75617 | 719 ft | 150 kts | 0° |
| 2026-04-30 22:31 | 41.31424 | 28.77492 | 2270 ft | 163 kts | 31° |
| 2026-04-30 22:32 | 41.35058 | 28.80159 | 3087 ft | 234 kts | 30° |
| 2026-04-30 22:32 | 41.37852 | 28.82691 | 4510 ft | 251 kts | 56° |
| 2026-04-30 22:33 | 41.37682 | 28.89495 | 6761 ft | 272 kts | 121° |
| 2026-04-30 22:33 | 41.35599 | 28.93731 | 8292 ft | 282 kts | 123° |
| 2026-04-30 22:34 | 41.32278 | 29.00378 | 10286 ft | 302 kts | 123° |
| 2026-04-30 22:35 | 41.29782 | 29.05389 | 10653 ft | 347 kts | 126° |
| 2026-04-30 22:36 | 41.24018 | 29.16956 | 12313 ft | 388 kts | 128° |
| 2026-04-30 22:36 | 41.22526 | 29.19957 | 12875 ft | 392 kts | 128° |
| 2026-04-30 22:37 | 41.17942 | 29.29143 | 14608 ft | 403 kts | 128° |
| 2026-04-30 22:37 | 41.16380 | 29.32261 | 15156 ft | 408 kts | 128° |
| 2026-04-30 22:37 | 41.13203 | 29.38579 | 16234 ft | 415 kts | 128° |
| 2026-04-30 22:38 | 41.09974 | 29.45000 | 17275 ft | 422 kts | 128° |
| 2026-04-30 22:38 | 41.06685 | 29.51536 | 18329 ft | 430 kts | 128° |
| 2026-04-30 22:39 | 41.05033 | 29.54817 | 18840 ft | 433 kts | 128° |
| 2026-04-30 22:39 | 40.99930 | 29.64905 | 20300 ft | 443 kts | 128° |
| 2026-04-30 22:40 | 40.94719 | 29.75181 | 21557 ft | 452 kts | 128° |
| 2026-04-30 22:41 | 40.89403 | 29.85639 | 22632 ft | 461 kts | 128° |
| 2026-04-30 22:41 | 40.85791 | 29.92706 | 23326 ft | 466 kts | 128° |
| 2026-04-30 22:42 | 40.78449 | 30.07059 | 24597 ft | 475 kts | 128° |
| 2026-04-30 22:43 | 40.74724 | 30.14295 | 25201 ft | 479 kts | 128° |
| 2026-04-30 22:43 | 40.70971 | 30.21566 | 25984 ft | 478 kts | 128° |
| 2026-04-30 22:44 | 40.67229 | 30.28791 | 26825 ft | 477 kts | 128° |
| 2026-04-30 22:45 | 40.59295 | 30.42661 | 28532 ft | 471 kts | 133° |
| 2026-04-30 22:45 | 40.55269 | 30.49460 | 29308 ft | 473 kts | 127° |
| 2026-04-30 22:46 | 40.52547 | 30.57376 | 30088 ft | 480 kts | 107° |
| 2026-04-30 22:47 | 40.49519 | 30.74446 | 31647 ft | 478 kts | 107° |
| 2026-04-30 22:47 | 40.47672 | 30.82810 | 32439 ft | 475 kts | 110° |
| 2026-04-30 22:48 | 40.45599 | 30.91047 | 33170 ft | 475 kts | 111° |
| 2026-04-30 22:49 | 40.42567 | 31.03397 | 34231 ft | 473 kts | 110° |
| 2026-04-30 22:49 | 40.39634 | 31.15736 | 34962 ft | 471 kts | 110° |
| 2026-04-30 22:50 | 40.36385 | 31.32738 | 35052 ft | 489 kts | 104° |
| 2026-04-30 22:51 | 40.34960 | 31.41527 | 35045 ft | 489 kts | 104° |
| 2026-04-30 22:52 | 40.32813 | 31.54594 | 35043 ft | 488 kts | 104° |
| 2026-04-30 22:53 | 40.29943 | 31.71966 | 35052 ft | 488 kts | 104° |
| 2026-04-30 22:53 | 40.27786 | 31.84977 | 35048 ft | 487 kts | 104° |
| 2026-04-30 22:55 | 40.23565 | 32.06369 | 35042 ft | 484 kts | 108° |
| 2026-04-30 22:56 | 40.19756 | 32.23260 | 35029 ft | 484 kts | 108° |
| 2026-04-30 22:57 | 40.15148 | 32.44425 | 35015 ft | 484 kts | 108° |
| 2026-04-30 22:58 | 40.12721 | 32.55166 | 35005 ft | 485 kts | 108° |
| 2026-04-30 22:59 | 40.07176 | 32.79129 | 35018 ft | 484 kts | 118° |